createdAt,value
2023-01-27T00:00:11.889Z,42.10
2023-01-27T00:02:46.204Z,46.30
2023-01-27T00:05:25.941Z,43.20
2023-01-27T00:08:17.362Z,41.60
2023-01-27T00:11:25.905Z,35.80
2023-01-27T00:14:16.592Z,37.40
2023-01-27T00:17:07.333Z,44.20
2023-01-27T00:19:58.119Z,35.00
2023-01-27T00:22:57.727Z,45.80
2023-01-27T00:25:50.551Z,36.50
2023-01-27T00:28:31.354Z,37.10
2023-01-27T00:31:02.797Z,37.90
2023-01-27T00:36:44.712Z,35.80
2023-01-27T00:39:28.275Z,36.90
2023-01-27T00:42:01.263Z,42.60
2023-01-27T00:45:05.799Z,39.20
2023-01-27T00:47:43.836Z,38.70
2023-01-27T00:50:34.533Z,38.60
2023-01-27T00:53:25.309Z,41.00
2023-01-27T00:56:16.340Z,39.80
2023-01-27T00:58:57.010Z,42.30
2023-01-27T01:01:37.843Z,41.50
2023-01-27T01:04:28.689Z,41.30
2023-01-27T01:07:10.504Z,43.60
2023-01-27T01:09:45.832Z,41.20
2023-01-27T01:12:36.547Z,44.90
2023-01-27T01:15:27.269Z,43.20
2023-01-27T01:17:57.752Z,45.40
2023-01-27T01:20:49.051Z,38.80
2023-01-27T01:23:43.210Z,46.70
2023-01-27T01:26:27.583Z,36.90
2023-01-27T01:28:58.090Z,43.80
2023-01-27T01:31:31.697Z,37.20
2023-01-27T01:34:22.482Z,35.40
2023-01-27T01:37:13.317Z,47.20
2023-01-27T01:39:57.460Z,51.50
2023-01-27T01:42:58.227Z,40.30
2023-01-27T01:45:52.152Z,44.30
2023-01-27T01:48:40.934Z,47.40
2023-01-27T01:51:14.798Z,46.70
2023-01-27T01:54:10.228Z,43.50
2023-01-27T01:57:06.280Z,38.90
2023-01-27T02:00:02.253Z,45.80
2023-01-27T02:02:34.486Z,44.90
2023-01-27T02:05:13.018Z,43.70
2023-01-27T02:08:10.668Z,42.50
2023-01-27T02:10:55.429Z,39.00
2023-01-27T02:13:46.796Z,39.80
2023-01-27T02:16:38.197Z,41.60
2023-01-27T02:19:40.777Z,45.70
2023-01-27T02:22:39.665Z,50.10
2023-01-27T02:25:33.537Z,40.50
2023-01-27T02:28:27.469Z,36.70
2023-01-27T02:31:07.058Z,42.80
2023-01-27T02:33:48.412Z,41.70
2023-01-27T02:36:43.378Z,38.30
2023-01-27T02:39:25.201Z,35.70
2023-01-27T02:41:58.477Z,40.60
2023-01-27T02:44:49.247Z,45.70
2023-01-27T02:47:20.001Z,45.00
2023-01-27T02:50:13.631Z,37.70
2023-01-27T02:53:04.587Z,47.60
2023-01-27T02:55:42.904Z,33.70
2023-01-27T02:58:33.555Z,47.10
2023-01-27T03:01:27.909Z,37.70
2023-01-27T03:04:19.054Z,33.70
2023-01-27T03:07:01.975Z,36.30
2023-01-27T03:09:52.868Z,41.30
2023-01-27T03:12:42.608Z,31.00
2023-01-27T03:15:51.092Z,40.80
2023-01-27T03:18:47.634Z,32.80
2023-01-27T03:21:38.423Z,35.80
2023-01-27T03:24:29.124Z,37.70
2023-01-27T03:27:04.982Z,38.00
2023-01-27T03:29:55.869Z,34.30
2023-01-27T03:32:47.557Z,39.50
2023-01-27T03:35:48.263Z,34.40
2023-01-27T03:38:45.841Z,34.30
2023-01-27T03:41:53.172Z,36.80
2023-01-27T03:45:01.598Z,37.40
2023-01-27T03:47:32.845Z,28.70
2023-01-27T03:50:31.197Z,38.70
2023-01-27T03:53:22.087Z,41.20
2023-01-27T03:55:52.560Z,33.40
2023-01-27T03:58:27.196Z,34.20
2023-01-27T04:01:20.187Z,35.90
2023-01-27T04:04:29.685Z,43.60
2023-01-27T04:07:20.437Z,38.80
2023-01-27T04:09:52.406Z,38.60
2023-01-27T04:12:37.077Z,37.60
2023-01-27T04:15:28.249Z,36.10
2023-01-27T04:18:03.990Z,32.90
2023-01-27T04:20:45.947Z,37.90
2023-01-27T04:23:36.095Z,38.30
2023-01-27T04:26:33.494Z,41.20
2023-01-27T04:29:14.567Z,39.70
2023-01-27T04:32:07.167Z,35.70
2023-01-27T04:34:57.771Z,34.80
2023-01-27T04:37:48.530Z,34.10
2023-01-27T04:40:19.927Z,29.80
2023-01-27T04:43:04.575Z,36.00
2023-01-27T04:45:44.162Z,31.70
2023-01-27T04:48:14.870Z,34.60
2023-01-27T04:50:48.766Z,35.60
2023-01-27T04:53:29.300Z,34.60
2023-01-27T04:56:07.383Z,35.40
2023-01-27T04:59:00.447Z,28.80
2023-01-27T05:01:41.404Z,35.80
2023-01-27T05:04:22.210Z,34.20
2023-01-27T05:07:13.116Z,31.30
2023-01-27T05:10:03.809Z,33.20
2023-01-27T05:12:44.287Z,34.90
2023-01-27T05:15:17.918Z,34.70
2023-01-27T05:17:48.601Z,32.80
2023-01-27T05:20:39.311Z,38.30
2023-01-27T05:23:36.236Z,31.20
2023-01-27T05:26:12.853Z,29.00
2023-01-27T05:29:03.532Z,36.20
2023-01-27T05:31:54.454Z,32.90
2023-01-27T05:34:41.487Z,26.20
2023-01-27T05:37:13.670Z,28.00
2023-01-27T05:39:58.714Z,24.80
2023-01-27T05:42:40.326Z,27.20
2023-01-27T05:45:24.086Z,26.00
2023-01-27T05:48:14.913Z,29.10
2023-01-27T05:51:06.351Z,22.60
2023-01-27T05:53:50.663Z,24.90
2023-01-27T05:56:26.547Z,23.70
2023-01-27T05:59:06.349Z,22.90
2023-01-27T06:01:38.366Z,25.90
2023-01-27T06:04:29.243Z,28.00
2023-01-27T06:07:19.936Z,28.60
2023-01-27T06:10:12.663Z,24.20
2023-01-27T06:13:04.011Z,23.40
2023-01-27T06:15:56.030Z,26.50
2023-01-27T06:18:47.384Z,24.30
2023-01-27T06:21:38.099Z,23.80
2023-01-27T06:24:28.918Z,27.00
2023-01-27T06:27:19.665Z,29.40
2023-01-27T06:30:13.074Z,30.00
2023-01-27T06:33:05.441Z,27.90
2023-01-27T06:36:04.430Z,29.10
2023-01-27T06:38:43.128Z,26.30
2023-01-27T06:41:18.635Z,25.70
2023-01-27T06:44:09.489Z,30.30
2023-01-27T06:46:40.013Z,25.70
2023-01-27T06:49:30.850Z,24.90
2023-01-27T06:52:21.579Z,27.40
2023-01-27T06:54:52.303Z,27.80
2023-01-27T06:57:43.979Z,26.10
2023-01-27T07:00:19.366Z,33.80
2023-01-27T07:06:04.480Z,31.00
2023-01-27T07:08:55.659Z,27.70
2023-01-27T07:11:46.547Z,30.50
2023-01-27T07:14:37.383Z,24.00
2023-01-27T07:17:28.122Z,19.50
2023-01-27T07:20:18.977Z,25.70
2023-01-27T07:23:10.584Z,24.10
2023-01-27T07:28:56.287Z,18.60
2023-01-27T07:31:41.344Z,23.00
2023-01-27T07:37:21.427Z,22.10
2023-01-27T07:40:02.230Z,25.90
2023-01-27T07:42:52.879Z,20.60
2023-01-27T07:45:35.651Z,21.90
2023-01-27T07:48:26.521Z,27.00
2023-01-27T07:51:07.496Z,21.20
2023-01-27T07:53:49.286Z,23.00
2023-01-27T07:56:19.778Z,25.70
2023-01-27T07:59:12.657Z,20.40
2023-01-27T08:02:03.539Z,23.50
2023-01-27T08:04:53.949Z,25.00
2023-01-27T08:07:28.266Z,23.90
2023-01-27T08:10:19.972Z,23.60
2023-01-27T08:12:52.999Z,20.90
2023-01-27T08:15:44.036Z,23.60
2023-01-27T08:18:35.982Z,20.10
2023-01-27T08:21:32.545Z,20.80
2023-01-27T08:24:10.591Z,18.90
2023-01-27T08:27:01.270Z,20.40
2023-01-27T08:29:49.907Z,17.90
2023-01-27T08:32:40.962Z,19.00
2023-01-27T08:35:31.861Z,22.30
2023-01-27T08:38:22.642Z,20.50
2023-01-27T08:40:53.341Z,19.50
2023-01-27T08:43:44.560Z,28.50
2023-01-27T08:46:24.090Z,22.80
2023-01-27T08:49:15.194Z,22.60
2023-01-27T08:52:06.141Z,24.10
2023-01-27T08:54:57.152Z,20.40
2023-01-27T08:57:48.009Z,18.50
2023-01-27T09:00:30.035Z,17.70
2023-01-27T09:03:11.307Z,22.10
2023-01-27T09:05:52.477Z,20.60
2023-01-27T09:08:26.531Z,18.60
2023-01-27T09:11:18.807Z,17.90
2023-01-27T09:14:00.589Z,16.00
2023-01-27T09:16:51.250Z,17.90
2023-01-27T09:19:40.739Z,18.70
2023-01-27T09:22:31.720Z,21.10
2023-01-27T09:25:17.773Z,18.30
2023-01-27T09:28:16.974Z,16.80
2023-01-27T09:31:11.377Z,16.70
2023-01-27T09:34:02.415Z,18.70
2023-01-27T09:36:49.977Z,19.00
2023-01-27T09:39:45.510Z,18.90
2023-01-27T09:42:59.750Z,14.60
2023-01-27T09:46:15.573Z,14.80
2023-01-27T09:49:13.191Z,12.70
2023-01-27T09:52:23.829Z,12.30
2023-01-27T09:55:19.488Z,15.90
2023-01-27T09:58:24.639Z,11.70
2023-01-27T10:01:29.515Z,14.10
2023-01-27T10:04:41.268Z,15.00
2023-01-27T10:07:28.917Z,13.80
2023-01-27T10:10:34.048Z,17.40
2023-01-27T10:13:38.203Z,14.20
2023-01-27T10:16:48.938Z,13.30
2023-01-27T10:19:51.521Z,14.10
2023-01-27T10:22:31.509Z,12.30
2023-01-27T10:25:20.375Z,14.60
2023-01-27T10:28:08.934Z,14.80
2023-01-27T10:31:02.464Z,14.50
2023-01-27T10:33:53.544Z,14.00
2023-01-27T10:36:36.499Z,14.10
2023-01-27T10:39:26.114Z,14.60
2023-01-27T10:42:07.547Z,13.40
2023-01-27T10:44:57.145Z,15.20
2023-01-27T10:47:49.149Z,14.80
2023-01-27T10:50:44.410Z,12.70
2023-01-27T10:53:30.967Z,15.20
2023-01-27T10:56:29.257Z,14.20
2023-01-27T10:59:11.711Z,12.70
2023-01-27T11:01:52.720Z,14.70
2023-01-27T11:04:36.085Z,14.30
2023-01-27T11:07:28.268Z,13.30
2023-01-27T11:10:22.017Z,12.40
2023-01-27T11:13:06.233Z,15.30
2023-01-27T11:15:57.337Z,12.50
2023-01-27T11:18:55.173Z,14.50
2023-01-27T11:21:50.766Z,13.40
2023-01-27T11:24:44.888Z,13.60
2023-01-27T11:27:42.996Z,11.20
2023-01-27T11:30:41.042Z,13.70
2023-01-27T11:33:37.197Z,12.60
2023-01-27T11:36:12.921Z,14.80
2023-01-27T11:38:53.090Z,12.50
2023-01-27T11:41:48.916Z,13.20
2023-01-27T11:44:41.515Z,12.10
2023-01-27T11:47:36.095Z,12.00
2023-01-27T11:50:31.082Z,10.30
2023-01-27T11:53:21.747Z,12.50
2023-01-27T11:56:00.665Z,10.80
2023-01-27T11:58:48.829Z,11.30
2023-01-27T12:01:59.107Z,10.80
2023-01-27T12:04:49.950Z,10.20
2023-01-27T12:07:36.420Z,9.00
2023-01-27T12:10:31.401Z,9.80
2023-01-27T12:13:26.618Z,9.70
2023-01-27T12:16:18.537Z,8.80
2023-01-27T12:19:04.300Z,8.50
2023-01-27T12:21:58.643Z,7.50
2023-01-27T12:24:36.061Z,7.80
2023-01-27T12:27:24.218Z,9.50
2023-01-27T12:30:23.876Z,6.30
2023-01-27T12:32:59.215Z,8.50
2023-01-27T12:35:35.348Z,9.30
2023-01-27T12:38:28.095Z,8.10
2023-01-27T12:41:25.078Z,8.70
2023-01-27T12:44:22.496Z,8.60
2023-01-27T12:47:26.081Z,7.80
2023-01-27T12:50:21.656Z,7.70
2023-01-27T12:53:14.665Z,8.50
2023-01-27T12:56:12.021Z,8.60
2023-01-27T12:58:45.024Z,10.90
2023-01-27T13:01:41.280Z,8.70
2023-01-27T13:04:34.877Z,8.40
2023-01-27T13:07:30.891Z,9.60
2023-01-27T13:10:24.556Z,8.20
2023-01-27T13:13:05.099Z,10.10
2023-01-27T13:15:57.233Z,7.90
2023-01-27T13:18:56.960Z,8.50
2023-01-27T13:21:41.196Z,10.00
2023-01-27T13:24:19.423Z,7.80
2023-01-27T13:27:15.498Z,8.90
2023-01-27T13:30:15.529Z,8.70
2023-01-27T13:33:28.400Z,8.40
2023-01-27T13:36:35.383Z,10.00
2023-01-27T13:39:15.561Z,8.70
2023-01-27T13:42:18.327Z,10.30
2023-01-27T13:45:16.544Z,8.30
2023-01-27T13:48:05.063Z,6.30
2023-01-27T13:51:03.521Z,7.50
2023-01-27T13:54:01.107Z,7.80
2023-01-27T13:57:02.263Z,7.30
2023-01-27T13:59:54.828Z,8.20
2023-01-27T14:03:15.736Z,7.90
2023-01-27T14:06:21.707Z,7.50
2023-01-27T14:09:26.224Z,7.70
2023-01-27T14:12:20.368Z,8.40
2023-01-27T14:15:18.990Z,7.00
2023-01-27T14:17:58.961Z,7.70
2023-01-27T14:20:52.507Z,12.70
2023-01-27T14:23:54.259Z,9.00
2023-01-27T14:26:51.134Z,8.00
2023-01-27T14:29:48.254Z,7.50
2023-01-27T14:32:40.529Z,7.30
2023-01-27T14:35:39.311Z,7.40
2023-01-27T14:38:35.733Z,6.70
2023-01-27T14:41:33.277Z,8.70
2023-01-27T14:44:23.895Z,6.40
2023-01-27T14:47:24.142Z,8.00
2023-01-27T14:50:16.842Z,9.30
2023-01-27T14:53:02.948Z,7.60
2023-01-27T14:55:59.904Z,8.50
2023-01-27T14:58:56.825Z,15.10
2023-01-27T15:01:42.877Z,12.80
2023-01-27T15:04:53.576Z,8.80
2023-01-27T15:10:26.053Z,6.50
2023-01-27T15:13:24.313Z,6.50
2023-01-27T15:16:34.676Z,6.50
2023-01-27T15:19:27.516Z,6.90
2023-01-27T15:22:24.743Z,7.30
2023-01-27T15:25:31.091Z,9.10
2023-01-27T15:28:18.103Z,6.90
2023-01-27T15:31:24.581Z,7.60
2023-01-27T15:34:16.072Z,8.80
2023-01-27T15:37:13.362Z,5.90
2023-01-27T15:40:17.434Z,7.50
2023-01-27T15:42:56.876Z,6.20
2023-01-27T15:45:48.556Z,6.40
2023-01-27T15:48:41.059Z,6.00
2023-01-27T15:51:20.103Z,9.30
2023-01-27T15:54:19.083Z,6.90
2023-01-27T15:57:26.437Z,8.70
2023-01-27T16:00:08.745Z,12.10
2023-01-27T16:03:06.177Z,9.80
2023-01-27T16:06:02.269Z,10.20
2023-01-27T16:08:56.970Z,10.60
2023-01-27T16:11:42.973Z,7.80
2023-01-27T16:14:45.772Z,7.90
2023-01-27T16:17:35.541Z,7.70
2023-01-27T16:20:29.131Z,7.90
2023-01-27T16:23:34.159Z,10.30
2023-01-27T16:26:33.428Z,8.20
2023-01-27T16:29:33.623Z,7.70
2023-01-27T16:32:20.542Z,9.30
2023-01-27T16:35:21.084Z,7.40
2023-01-27T16:38:28.137Z,7.50
2023-01-27T16:41:20.295Z,8.60
2023-01-27T16:44:20.779Z,10.50
2023-01-27T16:47:23.738Z,7.50
2023-01-27T16:50:35.326Z,7.30
2023-01-27T16:53:26.732Z,6.40
2023-01-27T16:56:21.163Z,6.20
2023-01-27T16:59:21.194Z,9.40
2023-01-27T17:02:20.884Z,7.90
2023-01-27T17:05:05.460Z,12.10
2023-01-27T17:08:04.796Z,8.20
2023-01-27T17:10:59.220Z,9.10
2023-01-27T17:13:50.371Z,10.50
2023-01-27T17:16:44.129Z,10.90
2023-01-27T17:19:37.032Z,10.30
2023-01-27T17:22:38.812Z,10.40
2023-01-27T17:25:34.657Z,10.30
2023-01-27T17:28:27.198Z,7.70
2023-01-27T17:31:21.263Z,10.80
2023-01-27T17:34:02.117Z,7.80
2023-01-27T17:37:14.775Z,8.90
2023-01-27T17:40:14.211Z,8.40
2023-01-27T17:43:19.398Z,10.50
2023-01-27T17:46:25.713Z,9.00
2023-01-27T17:49:02.321Z,8.00
2023-01-27T17:51:54.437Z,8.60
2023-01-27T17:54:47.013Z,11.10
2023-01-27T17:57:24.035Z,10.50
2023-01-27T18:00:23.187Z,11.40
2023-01-27T18:03:18.177Z,10.90
2023-01-27T18:06:03.155Z,9.20
2023-01-27T18:08:54.560Z,45.70
2023-01-27T18:11:55.095Z,21.60
2023-01-27T18:14:46.029Z,14.00
2023-01-27T18:17:28.126Z,12.80
2023-01-27T18:20:31.408Z,12.20
2023-01-27T18:23:26.827Z,12.30
2023-01-27T18:26:16.416Z,10.00
2023-01-27T18:29:08.790Z,12.50
2023-01-27T18:32:09.231Z,15.20
2023-01-27T18:35:00.729Z,13.40
2023-01-27T18:40:45.255Z,13.00
2023-01-27T18:43:35.898Z,11.50
2023-01-27T18:46:19.667Z,12.00
2023-01-27T18:49:01.985Z,12.00
2023-01-27T18:51:52.791Z,10.40
2023-01-27T18:54:41.996Z,9.90
2023-01-27T18:57:33.416Z,9.50
2023-01-27T19:00:27.142Z,8.80
2023-01-27T19:03:22.882Z,10.40
2023-01-27T19:06:17.494Z,11.20
2023-01-27T19:08:58.287Z,10.80
2023-01-27T19:11:51.368Z,8.90
2023-01-27T19:14:42.501Z,8.30
2023-01-27T19:17:33.298Z,11.80
2023-01-27T19:20:29.246Z,9.50
2023-01-27T19:23:16.358Z,8.90
2023-01-27T19:25:53.601Z,9.40
2023-01-27T19:28:45.051Z,7.70
2023-01-27T19:31:35.982Z,7.30
2023-01-27T19:34:26.711Z,9.20
2023-01-27T19:37:19.903Z,8.20
2023-01-27T19:40:18.915Z,8.60
2023-01-27T19:43:13.189Z,6.40
2023-01-27T19:46:03.912Z,7.80
2023-01-27T19:48:45.788Z,7.20
2023-01-27T19:51:37.979Z,7.90
2023-01-27T19:54:30.269Z,7.40
2023-01-27T19:57:00.926Z,9.30
2023-01-27T19:59:43.092Z,7.80
2023-01-27T20:02:14.829Z,7.40
2023-01-27T20:05:05.942Z,9.00
2023-01-27T20:07:48.928Z,10.90
2023-01-27T20:10:39.824Z,8.90
2023-01-27T20:13:30.643Z,9.50
2023-01-27T20:16:21.420Z,7.60
2023-01-27T20:19:15.198Z,8.00
2023-01-27T20:22:06.118Z,8.40
2023-01-27T20:24:39.612Z,8.80
2023-01-27T20:27:30.602Z,7.60
2023-01-27T20:30:22.213Z,7.90
2023-01-27T20:33:05.023Z,7.70
2023-01-27T20:35:40.557Z,7.10
2023-01-27T20:38:15.838Z,8.50
2023-01-27T20:40:46.543Z,8.50
2023-01-27T20:43:35.261Z,6.30
2023-01-27T20:46:18.611Z,6.00
2023-01-27T20:49:03.137Z,8.30
2023-01-27T20:51:55.446Z,9.20
2023-01-27T20:54:46.489Z,7.50
2023-01-27T20:57:21.995Z,7.80
2023-01-27T21:00:03.425Z,8.70
2023-01-27T21:02:37.314Z,7.90
2023-01-27T21:05:18.202Z,9.60
2023-01-27T21:08:02.229Z,9.00
2023-01-27T21:10:42.898Z,9.20
2023-01-27T21:13:26.495Z,8.20
2023-01-27T21:16:17.321Z,9.20
2023-01-27T21:19:08.239Z,8.10
2023-01-27T21:21:50.056Z,7.70
2023-01-27T21:24:41.044Z,8.30
2023-01-27T21:27:19.169Z,8.60
2023-01-27T21:29:50.751Z,8.90
2023-01-27T21:32:24.290Z,9.00
2023-01-27T21:35:05.085Z,8.40
2023-01-27T21:37:55.804Z,8.60
2023-01-27T21:40:26.753Z,9.40
2023-01-27T21:43:35.325Z,8.40
2023-01-27T21:46:11.029Z,10.70
2023-01-27T21:48:44.643Z,8.30
2023-01-27T21:51:28.999Z,8.00
2023-01-27T21:54:04.968Z,7.70
2023-01-27T21:56:58.731Z,7.80
2023-01-27T21:59:49.572Z,7.40
2023-01-27T22:02:40.815Z,8.60
2023-01-27T22:05:26.442Z,7.70
2023-01-27T22:08:01.600Z,8.00
2023-01-27T22:10:52.353Z,9.00
2023-01-27T22:13:28.847Z,7.30
2023-01-27T22:16:12.549Z,7.80
2023-01-27T22:18:53.405Z,8.00
2023-01-27T22:21:31.601Z,6.70
2023-01-27T22:24:12.910Z,7.00
2023-01-27T22:26:52.800Z,7.30
2023-01-27T22:29:43.543Z,6.90
2023-01-27T22:32:34.394Z,7.80
2023-01-27T22:35:05.986Z,8.60
2023-01-27T22:37:56.746Z,7.90
2023-01-27T22:40:47.468Z,7.30
2023-01-27T22:43:38.242Z,9.00
2023-01-27T22:46:29.081Z,7.10
2023-01-27T22:49:19.739Z,8.60
2023-01-27T22:51:52.840Z,9.30
2023-01-27T22:54:36.778Z,7.20
2023-01-27T22:57:30.419Z,6.70
2023-01-27T23:00:05.267Z,8.50
2023-01-27T23:02:54.563Z,7.20
2023-01-27T23:05:35.211Z,7.30
2023-01-27T23:08:20.764Z,7.50
2023-01-27T23:11:11.963Z,9.20
2023-01-27T23:14:03.312Z,7.50
2023-01-27T23:16:54.107Z,6.50
2023-01-27T23:19:45.005Z,8.30
2023-01-27T23:22:20.263Z,7.70
2023-01-27T23:25:13.242Z,8.10
2023-01-27T23:28:04.553Z,7.60
2023-01-27T23:30:38.867Z,9.00
2023-01-27T23:33:20.339Z,8.30
2023-01-27T23:35:58.650Z,9.90
2023-01-27T23:38:42.160Z,8.60
2023-01-27T23:41:32.834Z,7.90
2023-01-27T23:44:23.524Z,8.30
2023-01-27T23:47:04.202Z,8.70
2023-01-27T23:49:45.830Z,9.40
2023-01-27T23:52:27.705Z,8.80
2023-01-27T23:55:18.823Z,9.40
2023-01-27T23:58:09.845Z,8.40
